Time;durP1;ratioP1;P1;durP2;ratioP2;P2;SDS_P1;SDS_P2;PMS_P1;PMS_P2;Temp;Humidity;BMP_temperature;BMP_pressure;BME280_temperature;BME280_humidity;BME280_pressure;Samples;Min_cycle;Max_cycle;Signal;HPM_P1;HPM_P2
2022/08/14 00:00:15;;;;;;;18.88;15.55;;;;;;;23.91;67.80;99371.03;5062600;28;20032;-33
2022/08/14 00:02:41;;;;;;;19.00;15.50;;;;;;;23.71;68.14;99371.69;5062305;28;20568;-32
2022/08/14 00:05:08;;;;;;;19.90;16.55;;;;;;;23.76;68.04;99358.72;5042210;28;20029;-30
2022/08/14 00:07:34;;;;;;;18.65;15.30;;;;;;;23.70;68.66;99359.19;5030703;28;20061;-30
2022/08/14 00:10:01;;;;;;;23.33;15.88;;;;;;;23.76;70.25;99364.16;5048745;28;20053;-32
2022/08/14 00:12:27;;;;;;;24.83;15.48;;;;;;;23.35;70.98;99365.47;5030998;28;20033;-33
2022/08/14 00:14:53;;;;;;;22.42;15.25;;;;;;;23.20;71.30;99363.25;5030772;28;20400;-30
2022/08/14 00:17:18;;;;;;;21.75;15.07;;;;;;;22.72;74.64;99350.53;5048989;28;20044;-35
2022/08/14 00:19:44;;;;;;;25.90;16.75;;;;;;;22.45;76.30;99361.38;5048788;28;20025;-29
2022/08/14 00:22:11;;;;;;;22.63;16.67;;;;;;;22.49;75.76;99355.28;5048802;28;20037;-30
2022/08/14 00:24:36;;;;;;;24.23;17.58;;;;;;;22.17;77.65;99362.66;5030975;28;20128;-37
2022/08/14 00:27:02;;;;;;;26.45;17.77;;;;;;;21.69;79.89;99345.16;5031237;28;20112;-29
2022/08/14 00:29:29;;;;;;;29.92;19.50;;;;;;;21.39;81.14;99325.81;5048897;28;20079;-33
2022/08/14 00:31:54;;;;;;;25.25;18.40;;;;;;;21.34;82.33;99339.50;5030416;28;20036;-29
2022/08/14 00:34:20;;;;;;;31.88;21.55;;;;;;;21.00;84.33;99318.34;5048652;28;20025;-31
2022/08/14 00:36:45;;;;;;;29.17;20.38;;;;;;;20.97;85.47;99308.91;5048647;28;20061;-31
2022/08/14 00:39:13;;;;;;;27.02;19.70;;;;;;;21.06;86.41;99312.50;5048692;28;20025;-32
2022/08/14 00:41:38;;;;;;;;;;;;;;;21.49;84.61;99318.56;5031085;28;20033;-29
2022/08/14 00:44:04;;;;;;;27.67;18.10;;;;;;;21.46;83.91;99309.13;5048467;28;19939;-29
2022/08/14 00:46:29;;;;;;;24.88;18.65;;;;;;;21.26;86.73;99307.69;5048736;28;20655;-30
2022/08/14 00:48:55;;;;;;;25.10;17.67;;;;;;;21.56;84.27;99308.88;5048401;28;20061;-29
2022/08/14 00:51:20;;;;;;;25.05;18.17;;;;;;;21.30;84.42;99307.88;5030033;28;20083;-30
2022/08/14 00:53:49;;;;;;;25.85;18.33;;;;;;;21.28;83.94;99314.41;5047781;28;20033;-30
2022/08/14 00:56:15;;;;;;;23.23;18.85;;;;;;;21.40;84.30;99300.28;5048116;28;20052;-31
2022/08/14 00:58:41;;;;;;;20.75;16.88;;;;;;;21.95;80.67;99288.31;5030245;28;20067;-29
2022/08/14 01:01:09;;;;;;;22.98;16.92;;;;;;;22.68;78.14;99301.47;5030222;28;20025;-30
2022/08/14 01:03:38;;;;;;;24.20;16.92;;;;;;;22.00;81.73;99303.66;5048275;28;20025;-31
2022/08/14 01:06:07;;;;;;;21.98;16.17;;;;;;;21.55;81.58;99301.84;5029869;28;20056;-29
2022/08/14 01:08:33;;;;;;;18.52;15.63;;;;;;;21.45;82.89;99307.53;5048054;28;20550;-31
2022/08/14 01:10:59;;;;;;;19.30;15.07;;;;;;;22.00;81.10;99306.38;5030394;28;20075;-31
2022/08/14 01:13:32;;;;;;;21.60;15.95;;;;;;;22.63;78.13;99298.91;5030104;28;20028;-33
2022/08/14 01:16:00;;;;;;;20.80;15.80;;;;;;;22.68;78.29;99287.88;5029755;28;20021;-31
2022/08/14 01:21:14;;;;;;;20.77;15.48;;;;;;;23.69;74.61;99284.91;5048248;28;20039;-31
2022/08/14 01:23:52;;;;;;;18.73;15.00;;;;;;;23.62;72.96;99298.19;5029903;28;20094;-32
2022/08/14 01:26:22;;;;;;;19.45;15.45;;;;;;;23.01;77.06;99287.41;5048024;28;20037;-35
2022/08/14 01:28:50;;;;;;;20.42;15.40;;;;;;;22.63;78.33;99280.66;5029562;28;20033;-33
2022/08/14 01:31:18;;;;;;;20.13;15.07;;;;;;;22.79;77.36;99272.06;5048194;28;20021;-32
2022/08/14 01:33:49;;;;;;;21.67;15.70;;;;;;;23.06;76.77;99271.75;5029368;28;20044;-31
2022/08/14 01:36:16;;;;;;;21.90;15.18;;;;;;;23.18;75.47;99262.94;5029838;28;20025;-31
2022/08/14 01:38:44;;;;;;;19.67;15.50;;;;;;;22.99;76.42;99259.75;5029527;28;20028;-30
2022/08/14 01:41:12;;;;;;;16.92;14.05;;;;;;;23.53;73.95;99256.63;5047451;28;20061;-31
2022/08/14 01:43:53;;;;;;;16.77;13.57;;;;;;;23.91;72.21;99278.44;5029596;28;20041;-34
2022/08/14 01:46:21;;;;;;;17.15;13.70;;;;;;;23.87;72.95;99280.22;5029562;28;20147;-31
2022/08/14 01:48:47;;;;;;;18.83;14.30;;;;;;;23.87;72.67;99272.06;5047407;28;20033;-32
2022/08/14 01:51:15;;;;;;;18.67;15.43;;;;;;;23.70;73.74;99281.06;5047452;28;20025;-31
2022/08/14 01:53:46;;;;;;;20.08;15.60;;;;;;;23.03;77.46;99280.56;5029100;28;20057;-30
2022/08/14 01:56:17;;;;;;;20.70;17.00;;;;;;;22.96;77.33;99276.69;5029360;28;20119;-30
2022/08/14 01:58:44;;;;;;;21.33;17.90;;;;;;;22.93;77.70;99258.31;5029443;28;20094;-33
2022/08/14 02:01:09;;;;;;;18.85;15.73;;;;;;;23.06;77.40;99265.50;5029118;28;20040;-32
2022/08/14 02:03:39;;;;;;;21.17;16.30;;;;;;;23.55;75.73;99276.94;5047433;28;20032;-29
2022/08/14 02:06:04;;;;;;;21.38;17.23;;;;;;;23.24;76.58;99277.16;5028602;28;20036;-32
2022/08/14 02:08:30;;;;;;;21.30;15.80;;;;;;;23.27;76.44;99250.13;5028746;28;20029;-29
2022/08/14 02:11:17;;;;;;;19.33;16.25;;;;;;;23.25;76.26;99246.94;5046957;28;20071;-29
2022/08/14 02:13:46;;;;;;;19.30;14.45;;;;;;;23.58;74.79;99240.91;5046740;28;20113;-37
2022/08/14 02:16:26;;;;;;;21.13;17.83;;;;;;;23.14;78.73;99272.06;5046669;28;20033;-32
2022/08/14 02:18:53;;;;;;;22.88;18.42;;;;;;;22.75;79.86;99271.09;5046746;28;20111;-31
2022/08/14 02:21:19;;;;;;;18.73;15.18;;;;;;;23.38;77.93;99268.81;5046632;28;20028;-31
2022/08/14 02:23:48;;;;;;;20.42;16.48;;;;;;;23.77;74.92;99261.53;5028511;28;20067;-32
2022/08/14 02:26:26;;;;;;;21.80;16.80;;;;;;;23.66;75.10;99256.41;5045150;28;20123;-30
2022/08/14 02:28:52;;;;;;;;;;;;;;;23.08;78.07;99263.25;5047021;28;20029;-30
2022/08/14 02:31:18;;;;;;;23.17;18.23;;;;;;;22.71;79.68;99235.59;5046257;28;19909;-29
2022/08/14 02:33:44;;;;;;;21.23;17.92;;;;;;;22.57;80.45;99243.91;5046459;28;20028;-34
2022/08/14 02:36:10;;;;;;;22.50;17.25;;;;;;;22.44;81.41;99251.09;5046626;28;20079;-33
2022/08/14 02:38:37;;;;;;;22.08;17.85;;;;;;;21.90;84.23;99255.06;5046629;28;20035;-28
2022/08/14 02:41:07;;;;;;;22.52;18.70;;;;;;;22.05;83.86;99260.09;5046425;28;20052;-34
2022/08/14 02:43:33;;;;;;;24.63;19.35;;;;;;;21.72;85.42;99246.06;5046667;28;20060;-31
2022/08/14 02:45:59;;;;;;;24.52;20.02;;;;;;;21.65;86.10;99262.78;5045911;28;20075;-35
2022/08/14 02:48:34;;;;;;;23.98;19.40;;;;;;;21.64;86.35;99267.44;5028603;28;20043;-30
2022/08/14 02:51:06;;;;;;;24.30;19.77;;;;;;;21.40;87.30;99264.22;5046309;28;20122;-30
2022/08/14 02:53:32;;;;;;;25.90;18.90;;;;;;;21.42;87.63;99259.31;5028123;28;20059;-30
2022/08/14 02:55:58;;;;;;;22.23;18.83;;;;;;;21.78;85.58;99277.38;5027961;28;20029;-29
2022/08/14 02:58:24;;;;;;;23.85;19.73;;;;;;;21.69;86.27;99273.81;5028069;28;20029;-31
2022/08/14 03:00:50;;;;;;;25.23;19.00;;;;;;;21.83;85.14;99267.19;5028343;28;20043;-32
2022/08/14 03:03:16;;;;;;;23.70;19.25;;;;;;;22.21;83.37;99252.28;5028396;28;20056;-32
2022/08/14 03:05:42;;;;;;;22.60;18.38;;;;;;;22.76;80.16;99251.75;5028231;28;20535;-38
2022/08/14 03:08:11;;;;;;;30.70;17.88;;;;;;;22.75;79.44;99233.84;5028007;28;20029;-29
2022/08/14 03:10:37;;;;;;;23.48;18.83;;;;;;;22.95;78.63;99247.91;5028030;28;20420;-29
2022/08/14 03:13:03;;;;;;;23.33;18.58;;;;;;;22.70;80.43;99225.84;5045838;28;20025;-32
2022/08/14 03:15:43;;;;;;;21.65;17.65;;;;;;;22.99;77.96;99230.63;5028305;28;20025;-31
2022/08/14 03:18:10;;;;;;;21.95;18.13;;;;;;;23.12;77.29;99241.66;5046175;28;20033;-33
2022/08/14 03:20:35;;;;;;;21.70;16.83;;;;;;;23.20;76.73;99236.22;5011840;28;20043;-36
2022/08/14 03:23:01;;;;;;;22.98;17.33;;;;;;;23.30;76.05;99242.44;5046092;28;20104;-30
2022/08/14 03:25:30;;;;;;;22.42;17.13;;;;;;;23.28;76.38;99248.19;5046088;28;20090;-33
2022/08/14 03:27:55;;;;;;;19.77;16.23;;;;;;;22.92;77.43;99234.94;5028086;28;20039;-31
2022/08/14 03:30:21;;;;;;;19.63;15.80;;;;;;;23.01;76.75;99235.75;5028096;28;20041;-31
2022/08/14 03:32:47;;;;;;;19.67;16.55;;;;;;;23.25;75.58;99249.66;5045885;28;20044;-29
2022/08/14 03:35:12;;;;;;;19.15;15.30;;;;;;;23.24;75.63;99255.41;5045691;28;20033;-30
2022/08/14 03:37:38;;;;;;;20.75;17.35;;;;;;;22.90;77.73;99257.00;5045874;28;20373;-30
2022/08/14 03:40:05;;;;;;;21.40;17.10;;;;;;;22.21;79.26;99263.13;5045389;28;20449;-33
2022/08/14 03:42:31;;;;;;;22.47;17.47;;;;;;;21.65;82.07;99254.66;5031517;28;20032;-30
2022/08/14 03:44:57;;;;;;;24.40;19.13;;;;;;;21.33;83.77;99239.44;5015211;28;20094;-31
2022/08/14 03:47:23;;;;;;;21.55;18.40;;;;;;;21.26;84.98;99256.97;5049807;28;20021;-29
2022/08/14 03:49:49;;;;;;;24.80;18.55;;;;;;;21.07;85.24;99242.81;5031255;28;20037;-29
2022/08/14 03:52:15;;;;;;;22.33;18.83;;;;;;;20.94;87.67;99254.50;5031434;28;20071;-32
2022/08/14 03:54:40;;;;;;;22.00;18.20;;;;;;;20.94;87.22;99259.94;5049380;28;20052;-29
2022/08/14 03:57:07;;;;;;;22.17;18.23;;;;;;;21.02;86.80;99270.03;5049259;28;20118;-31
2022/08/14 03:59:33;;;;;;;23.50;19.17;;;;;;;21.09;86.40;99256.06;5049595;28;20036;-32
2022/08/14 04:01:59;;;;;;;23.45;18.52;;;;;;;21.07;88.23;99264.50;5031377;28;20037;-32
2022/08/14 04:04:25;;;;;;;26.08;18.50;;;;;;;21.08;87.90;99263.38;5049437;28;20029;-30
2022/08/14 04:06:50;;;;;;;23.13;17.80;;;;;;;20.91;87.41;99238.88;5049657;28;20045;-33
2022/08/14 04:09:16;;;;;;;22.60;18.55;;;;;;;20.96;87.65;99255.00;5048925;28;20031;-32
2022/08/14 04:11:42;;;;;;;25.73;19.30;;;;;;;20.91;89.33;99257.84;5049406;28;20082;-29
2022/08/14 04:14:08;;;;;;;25.60;19.33;;;;;;;20.86;89.10;99242.47;5049209;28;20025;-29
2022/08/14 04:16:34;;;;;;;24.25;18.85;;;;;;;20.84;89.82;99252.81;5049028;28;20032;-29
2022/08/14 04:19:03;;;;;;;24.88;19.17;;;;;;;20.85;89.83;99230.84;5048754;28;20104;-30
2022/08/14 04:21:28;;;;;;;26.27;19.92;;;;;;;20.87;90.40;99249.53;5030784;28;20503;-32
2022/08/14 04:23:57;;;;;;;27.23;20.10;;;;;;;20.94;91.08;99241.75;5048392;28;20029;-29
2022/08/14 04:26:23;;;;;;;25.02;18.75;;;;;;;20.76;90.39;99232.72;5031017;28;20029;-29
2022/08/14 04:28:49;;;;;;;25.42;19.63;;;;;;;20.75;90.50;99222.16;5048816;28;20036;-29
2022/08/14 04:31:20;;;;;;;23.40;20.08;;;;;;;20.89;90.59;99251.94;5030834;28;20033;-29
2022/08/14 04:33:46;;;;;;;23.50;18.65;;;;;;;20.94;91.55;99236.31;5048654;28;20028;-35
2022/08/14 04:36:12;;;;;;;25.83;19.55;;;;;;;21.17;90.07;99234.44;5030646;28;20036;-34
2022/08/14 04:44:05;;;;;;;23.27;19.08;;;;;;;21.30;87.67;99224.59;5048486;28;20056;-32
2022/08/14 04:46:33;;;;;;;26.48;20.38;;;;;;;21.48;87.36;99252.66;5048760;28;20476;-30
2022/08/14 04:48:59;;;;;;;26.40;19.90;;;;;;;21.25;88.47;99251.88;5048507;28;20024;-34
2022/08/14 04:51:26;;;;;;;24.45;20.17;;;;;;;21.10;88.13;99253.03;5030592;28;20492;-34
2022/08/14 04:53:53;;;;;;;24.33;20.30;;;;;;;21.13;89.49;99247.00;5048258;28;20464;-30
2022/08/14 04:56:22;;;;;;;26.35;19.85;;;;;;;21.04;89.37;99232.56;5046645;28;20064;-29
2022/08/14 04:58:49;;;;;;;26.95;20.98;;;;;;;21.25;89.50;99244.53;5030441;28;20044;-34
2022/08/14 05:01:16;;;;;;;26.23;20.60;;;;;;;21.24;90.28;99251.03;5029918;28;20817;-31
2022/08/14 05:03:42;;;;;;;26.05;21.23;;;;;;;21.15;90.77;99233.16;5046859;28;20492;-38
2022/08/14 05:06:10;;;;;;;31.27;23.85;;;;;;;21.25;89.75;99246.44;5048103;28;20087;-34
2022/08/14 05:08:36;;;;;;;33.10;23.77;;;;;;;21.33;89.46;99248.41;5030393;28;20483;-31
2022/08/14 05:11:05;;;;;;;31.98;26.10;;;;;;;21.36;90.73;99241.56;5029791;28;20127;-33
2022/08/14 05:13:32;;;;;;;34.35;27.02;;;;;;;21.37;91.39;99254.00;5048351;28;20060;-30
2022/08/14 05:15:59;;;;;;;33.05;25.27;;;;;;;21.35;91.91;99239.94;5048010;28;20041;-31
2022/08/14 05:18:31;;;;;;;34.75;25.30;;;;;;;21.45;91.81;99243.25;5029981;28;20017;-31
2022/08/14 05:20:57;;;;;;;32.83;24.52;;;;;;;21.55;90.63;99223.16;5030000;28;20060;-31
2022/08/14 05:23:26;;;;;;;31.02;22.90;;;;;;;21.65;90.01;99230.22;5029765;28;20033;-31
2022/08/14 05:25:57;;;;;;;30.10;23.05;;;;;;;21.76;90.16;99217.19;5029363;28;20071;-32
2022/08/14 05:28:25;;;;;;;30.58;22.92;;;;;;;21.87;88.51;99226.66;5029839;28;20028;-29
2022/08/14 05:30:54;;;;;;;28.27;22.23;;;;;;;21.86;88.89;99244.84;5029787;28;20492;-31
2022/08/14 05:33:23;;;;;;;25.27;20.90;;;;;;;21.79;88.84;99236.34;5047798;28;20484;-32
2022/08/14 05:35:49;;;;;;;24.10;20.13;;;;;;;21.89;88.02;99235.28;5029586;28;20060;-30
2022/08/14 05:38:17;;;;;;;26.75;21.17;;;;;;;21.57;89.79;99233.72;5029403;28;20021;-33
2022/08/14 05:40:43;;;;;;;;;;;;;;;21.82;90.76;99243.06;5030046;28;20029;-29
2022/08/14 05:43:08;;;;;;;26.02;19.85;;;;;;;21.96;88.35;99234.81;5047164;28;20398;-30
2022/08/14 05:45:34;;;;;;;30.65;25.90;;;;;;;22.14;87.39;99257.38;5047806;28;20036;-29
2022/08/14 05:48:04;;;;;;;26.45;22.33;;;;;;;22.05;87.89;99231.00;5046905;28;20033;-31
2022/08/14 05:50:30;;;;;;;26.92;22.17;;;;;;;22.00;88.02;99249.34;5029176;28;20112;-32
2022/08/14 05:52:55;;;;;;;26.52;20.40;;;;;;;21.99;87.91;99239.63;5029004;28;20120;-28
2022/08/14 05:55:21;;;;;;;24.83;19.65;;;;;;;22.04;87.52;99253.84;5046949;28;20039;-29
2022/08/14 05:57:54;;;;;;;23.85;19.98;;;;;;;22.11;87.39;99252.56;5028706;28;20041;-29
2022/08/14 06:00:24;;;;;;;24.55;21.58;;;;;;;21.87;87.07;99232.06;5029207;28;20033;-29
2022/08/14 06:02:49;;;;;;;25.08;20.67;;;;;;;22.02;86.81;99233.56;5029034;28;20032;-32
2022/08/14 06:05:15;;;;;;;26.48;21.90;;;;;;;21.97;87.02;99248.06;5046680;28;20031;-31
2022/08/14 06:07:40;;;;;;;26.85;22.40;;;;;;;21.92;87.33;99206.69;5047134;28;20470;-32
2022/08/14 06:10:08;;;;;;;26.48;21.60;;;;;;;22.23;86.70;99231.03;5046561;28;20057;-30
2022/08/14 06:12:34;;;;;;;28.88;25.63;;;;;;;22.27;83.78;99213.03;5029162;28;20492;-29
2022/08/14 06:15:00;;;;;;;29.33;25.02;;;;;;;22.24;84.65;99213.66;5045581;28;20039;-29
2022/08/14 06:17:26;;;;;;;41.63;36.47;;;;;;;22.29;85.24;99221.66;5046972;28;20025;-28
2022/08/14 06:19:52;;;;;;;25.75;21.23;;;;;;;22.64;84.77;99227.13;5046582;28;20033;-31
2022/08/14 06:22:18;;;;;;;30.25;24.90;;;;;;;22.77;82.44;99237.03;5028942;28;20115;-32
2022/08/14 06:24:43;;;;;;;49.85;45.13;;;;;;;22.79;82.77;99244.88;5028871;28;20033;-30
2022/08/14 06:27:09;;;;;;;44.45;39.88;;;;;;;22.82;82.54;99247.75;5046801;28;20031;-29
2022/08/14 06:29:37;;;;;;;25.83;23.10;;;;;;;22.74;82.07;99247.75;5046895;28;20116;-31
2022/08/14 06:32:03;;;;;;;30.88;25.42;;;;;;;22.54;84.33;99249.97;5046469;28;20029;-31
2022/08/14 06:34:29;;;;;;;25.00;21.13;;;;;;;22.63;84.95;99225.53;5046614;28;20040;-30
2022/08/14 06:36:58;;;;;;;23.58;19.42;;;;;;;22.86;83.75;99251.44;5028722;28;20024;-31
2022/08/14 06:39:24;;;;;;;24.50;19.92;;;;;;;23.16;82.33;99245.34;5028451;28;20500;-34
2022/08/14 06:41:49;;;;;;;19.30;17.13;;;;;;;23.11;82.60;99246.31;5028332;28;20028;-30
2022/08/14 06:44:15;;;;;;;20.10;16.38;;;;;;;22.97;82.76;99235.59;5046704;28;20507;-33
2022/08/14 06:46:41;;;;;;;20.55;17.08;;;;;;;23.22;81.82;99246.78;5028314;28;20484;-34
2022/08/14 06:49:06;;;;;;;20.92;15.82;;;;;;;23.36;79.94;99241.16;5046645;28;20031;-30
2022/08/14 06:51:32;;;;;;;18.67;14.25;;;;;;;23.19;80.22;99248.22;5046493;28;20104;-31
2022/08/14 06:53:57;;;;;;;18.38;15.98;;;;;;;23.36;82.03;99235.72;5045867;28;20044;-34
2022/08/14 06:56:23;;;;;;;19.27;14.90;;;;;;;23.33;80.82;99231.69;5046359;28;20064;-30
2022/08/14 06:58:48;;;;;;;16.70;13.68;;;;;;;23.51;77.96;99237.09;5028441;28;20036;-30
2022/08/14 07:06:42;;;;;;;17.50;14.02;;;;;;;24.08;77.29;99254.97;5046974;28;20503;-31
2022/08/14 07:09:11;;;;;;;16.42;12.52;;;;;;;23.94;75.73;99236.94;5046450;28;20029;-34
2022/08/14 07:11:37;;;;;;;14.15;11.07;;;;;;;23.92;73.83;99241.91;5011987;28;20051;-30
2022/08/14 07:14:03;;;;;;;13.77;11.57;;;;;;;24.02;74.37;99263.31;5046083;28;20025;-32
2022/08/14 07:16:29;;;;;;;14.63;11.32;;;;;;;24.17;74.44;99242.91;5030289;28;20037;-30
2022/08/14 07:18:55;;;;;;;14.55;11.13;;;;;;;24.32;74.01;99238.81;5050007;28;20116;-31
2022/08/14 07:21:20;;;;;;;15.93;12.10;;;;;;;24.34;74.35;99250.16;5050443;28;20545;-34
2022/08/14 07:23:46;;;;;;;13.45;10.68;;;;;;;24.37;71.93;99259.59;5050028;28;20492;-34
2022/08/14 07:26:12;;;;;;;15.75;12.35;;;;;;;24.34;72.73;99241.22;5050408;28;20059;-37
2022/08/14 07:28:39;;;;;;;12.70;10.38;;;;;;;24.20;72.59;99249.63;5050135;28;20029;-33
2022/08/14 07:31:07;;;;;;;13.90;10.88;;;;;;;24.13;71.64;99257.50;5031915;28;20025;-29
2022/08/14 07:33:37;;;;;;;14.05;11.05;;;;;;;24.28;69.94;99251.50;5049848;28;20032;-30
2022/08/14 07:36:06;;;;;;;14.77;11.60;;;;;;;24.34;69.91;99255.63;5049998;28;20036;-30
2022/08/14 07:38:32;;;;;;;15.88;11.57;;;;;;;24.38;70.23;99239.41;5031913;28;20083;-32
2022/08/14 07:40:58;;;;;;;13.82;10.40;;;;;;;24.52;67.88;99252.78;5031738;28;20033;-30
2022/08/14 07:43:24;;;;;;;13.73;9.95;;;;;;;24.61;66.06;99246.16;5050021;28;20031;-30
2022/08/14 07:45:50;;;;;;;12.68;10.10;;;;;;;24.66;66.17;99258.78;5049513;28;20086;-28
2022/08/14 07:48:16;;;;;;;15.27;11.55;;;;;;;24.80;66.80;99248.41;5050041;28;20073;-31
2022/08/14 07:50:42;;;;;;;14.18;11.57;;;;;;;24.95;67.66;99238.81;5031819;28;20033;-30
2022/08/14 07:53:07;;;;;;;16.00;11.98;;;;;;;25.22;65.61;99239.38;5031899;28;20032;-32
2022/08/14 07:55:34;;;;;;;15.68;12.25;;;;;;;24.85;67.98;99242.75;5049510;28;20484;-29
2022/08/14 07:58:00;;;;;;;15.90;12.93;;;;;;;25.14;69.71;99262.06;5031032;28;20529;-30
2022/08/14 08:00:27;;;;;;;15.35;12.10;;;;;;;25.33;66.82;99247.94;5049517;28;20039;-31
2022/08/14 08:02:54;;;;;;;14.48;12.00;;;;;;;25.65;63.63;99258.00;5049575;28;20481;-29
2022/08/14 08:05:25;;;;;;;13.30;11.00;;;;;;;25.39;64.69;99241.13;5031601;28;20032;-30
2022/08/14 08:07:52;;;;;;;14.23;9.65;;;;;;;25.08;62.51;99249.78;5031074;28;20033;-32
2022/08/14 08:10:30;;;;;;;13.15;10.07;;;;;;;25.05;62.81;99259.44;5031339;28;20048;-31
2022/08/14 08:12:59;;;;;;;13.88;10.40;;;;;;;25.05;60.76;99249.31;5049204;28;20041;-32
2022/08/14 08:15:25;;;;;;;11.82;9.65;;;;;;;24.89;62.33;99240.16;5031421;28;20041;-30
2022/08/14 08:17:52;;;;;;;11.25;8.93;;;;;;;25.20;59.89;99255.28;5030902;28;20079;-32
2022/08/14 08:20:21;;;;;;;11.90;10.13;;;;;;;25.17;61.29;99234.94;5048127;28;20040;-29
2022/08/14 08:22:49;;;;;;;12.15;9.60;;;;;;;25.23;60.86;99249.97;5015259;28;20033;-29
2022/08/14 08:25:16;;;;;;;13.60;9.18;;;;;;;25.28;59.36;99253.63;5049288;28;20029;-30
2022/08/14 08:27:42;;;;;;;15.75;10.93;;;;;;;25.49;60.67;99246.16;5030762;28;20060;-33
2022/08/14 08:30:09;;;;;;;14.88;10.60;;;;;;;25.09;60.69;99244.00;5031349;28;20495;-31
2022/08/14 08:32:42;;;;;;;13.45;9.80;;;;;;;25.24;60.80;99234.41;5031450;28;20037;-29
2022/08/14 08:35:40;;;;;;;13.45;11.00;;;;;;;25.21;60.61;99241.34;5047849;28;20025;-34
2022/08/14 08:38:08;;;;;;;14.65;10.45;;;;;;;25.29;60.98;99233.38;5014302;28;20436;-32
2022/08/14 08:40:36;;;;;;;13.70;10.00;;;;;;;25.47;61.75;99234.78;5031060;28;20025;-32
2022/08/14 08:43:05;;;;;;;14.27;11.32;;;;;;;25.47;61.75;99226.59;5048904;28;20036;-31
2022/08/14 08:45:31;;;;;;;12.68;9.57;;;;;;;25.82;60.20;99231.63;5048743;28;20763;-31
2022/08/14 08:47:57;;;;;;;15.70;11.88;;;;;;;26.02;61.38;99238.94;5030432;28;20498;-29
2022/08/14 08:50:29;;;;;;;13.50;10.23;;;;;;;25.97;60.34;99238.34;5048706;28;20043;-31
2022/08/14 08:52:57;;;;;;;14.82;11.20;;;;;;;26.25;60.79;99233.81;5030842;28;20448;-29
2022/08/14 08:55:38;;;;;;;15.32;10.05;;;;;;;26.30;58.42;99226.50;5030237;28;20040;-33
2022/08/14 08:58:09;;;;;;;15.48;12.02;;;;;;;26.37;58.85;99234.91;5048207;28;20075;-35
2022/08/14 09:00:38;;;;;;;14.32;10.43;;;;;;;26.64;56.84;99216.97;5048482;28;20481;-29
2022/08/14 09:03:08;;;;;;;12.65;10.10;;;;;;;26.76;54.99;99236.06;5029891;28;20116;-35
2022/08/14 09:05:37;;;;;;;12.35;10.05;;;;;;;26.82;55.21;99212.78;5030520;28;20029;-34
2022/08/14 09:08:15;;;;;;;13.32;10.35;;;;;;;26.70;54.77;99223.78;5030045;28;20500;-41
2022/08/14 09:10:42;;;;;;;13.80;10.23;;;;;;;26.94;55.81;99220.16;5048373;28;20025;-32
2022/08/14 09:13:11;;;;;;;12.82;10.10;;;;;;;27.12;54.84;99219.84;5030257;28;20036;-31
2022/08/14 09:15:48;;;;;;;13.27;9.82;;;;;;;26.88;54.59;99224.28;5030316;28;20128;-30
2022/08/14 09:18:16;;;;;;;13.95;10.82;;;;;;;26.82;55.09;99214.75;5046935;28;20475;-34
2022/08/14 09:20:45;;;;;;;11.82;9.38;;;;;;;26.90;54.96;99207.53;5030397;28;20099;-33
2022/08/14 09:23:13;;;;;;;14.02;9.95;;;;;;;27.22;55.17;99189.22;5030049;28;20112;-35
2022/08/14 09:25:43;;;;;;;14.13;10.45;;;;;;;27.03;55.98;99200.84;5030102;28;20574;-31
2022/08/14 09:28:09;;;;;;;16.10;11.50;;;;;;;26.95;58.18;99194.41;5047844;28;20083;-32
2022/08/14 09:30:38;;;;;;;14.95;11.10;;;;;;;26.96;58.23;99184.25;5048057;28;20416;-31
2022/08/14 09:33:03;;;;;;;14.35;10.30;;;;;;;27.01;57.53;99192.19;5029807;28;20036;-30
2022/08/14 09:35:47;;;;;;;13.18;9.95;;;;;;;27.03;58.51;99198.09;5047662;28;20032;-30
2022/08/14 09:38:24;;;;;;;12.57;9.27;;;;;;;27.15;56.32;99197.25;5028864;28;20124;-32
2022/08/14 09:41:22;;;;;;;11.48;9.20;;;;;;;27.25;55.60;99194.81;5029910;28;20035;-31
2022/08/14 09:44:06;;;;;;;9.73;7.32;;;;;;;26.92;55.00;99188.81;5045582;28;20039;-39
2022/08/14 09:46:35;;;;;;;12.48;9.02;;;;;;;26.69;55.42;99207.75;5029331;28;20415;-30
2022/08/14 09:49:03;;;;;;;11.05;7.57;;;;;;;26.69;55.29;99205.00;5045583;28;20029;-29
2022/08/14 09:51:30;;;;;;;12.23;8.55;;;;;;;26.50;54.30;99205.59;5046046;28;20120;-31
2022/08/14 09:54:11;;;;;;;13.63;8.75;;;;;;;26.31;56.88;99204.28;5045609;28;20067;-29
2022/08/14 09:56:48;;;;;;;14.13;9.45;;;;;;;25.62;60.73;99212.28;5029174;28;20064;-29
2022/08/14 09:59:20;;;;;;;15.23;8.90;;;;;;;25.73;60.41;99203.66;5029279;28;20024;-31
2022/08/14 10:01:48;;;;;;;11.30;9.35;;;;;;;25.97;60.22;99217.31;5047332;28;20060;-29
2022/08/14 10:04:20;;;;;;;12.57;9.50;;;;;;;25.33;60.66;99209.72;5029314;28;20032;-31
2022/08/14 10:06:46;;;;;;;12.95;9.40;;;;;;;25.16;62.50;99206.03;5029343;28;20060;-30
2022/08/14 10:09:12;;;;;;;11.50;8.85;;;;;;;24.84;62.20;99188.53;5047176;28;20056;-35
2022/08/14 10:11:40;;;;;;;12.82;8.65;;;;;;;24.94;61.83;99188.13;5029037;28;20071;-29
2022/08/14 10:14:17;;;;;;;9.25;7.45;;;;;;;24.47;61.62;99185.63;5028911;28;20067;-34
2022/08/14 10:16:44;;;;;;;11.75;8.43;;;;;;;24.59;60.70;99172.09;5029190;28;20037;-30
2022/08/14 10:19:13;;;;;;;11.38;8.43;;;;;;;24.90;61.48;99180.94;5045508;28;20115;-32
2022/08/14 10:21:42;;;;;;;10.68;8.43;;;;;;;24.85;60.61;99171.84;5029038;28;20572;-36
2022/08/14 10:24:21;;;;;;;12.88;7.97;;;;;;;24.82;60.83;99167.06;5045287;28;20500;-34
2022/08/14 10:27:01;;;;;;;9.93;7.80;;;;;;;24.41;61.79;99152.31;5029255;28;20619;-30
2022/08/14 10:29:38;;;;;;;12.70;9.32;;;;;;;24.75;61.42;99166.03;5046955;28;20029;-38
2022/08/14 10:32:05;;;;;;;;;;;;;;;25.15;61.62;99168.16;5047340;28;20124;-33
2022/08/14 10:34:35;;;;;;;10.18;7.63;;;;;;;24.59;61.59;99155.72;5046644;28;19916;-35
2022/08/14 10:37:11;;;;;;;12.60;9.55;;;;;;;24.60;62.97;99164.69;5047058;28;20132;-33
2022/08/14 10:39:40;;;;;;;10.65;7.75;;;;;;;24.76;60.41;99165.66;5029062;28;20554;-29
2022/08/14 10:42:14;;;;;;;9.75;8.27;;;;;;;24.58;62.30;99170.50;5046737;28;20032;-30
2022/08/14 10:44:46;;;;;;;11.77;7.50;;;;;;;24.32;62.72;99178.88;5028893;28;20125;-32
2022/08/14 10:47:12;;;;;;;13.32;9.35;;;;;;;24.13;64.57;99171.16;5046517;28;20107;-35
2022/08/14 10:49:49;;;;;;;11.40;9.07;;;;;;;24.08;64.87;99181.44;5028589;28;20029;-30
2022/08/14 10:52:31;;;;;;;11.48;8.45;;;;;;;23.92;64.42;99183.94;5045465;28;20032;-29
2022/08/14 10:55:07;;;;;;;13.20;9.95;;;;;;;23.74;65.79;99196.81;5046821;28;20041;-29
2022/08/14 10:57:35;;;;;;;12.30;9.87;;;;;;;23.48;66.34;99173.25;5044766;28;20501;-29
2022/08/14 11:00:12;;;;;;;12.55;9.10;;;;;;;23.33;66.72;99204.47;5028453;28;20492;-30
2022/08/14 11:02:38;;;;;;;;;;;;;;;23.09;67.11;99207.78;5047050;28;20067;-28
2022/08/14 11:05:17;;;;;;;15.68;10.27;;;;;;;23.01;67.88;99193.06;5028628;28;19956;-29
2022/08/14 11:07:54;;;;;;;12.90;10.48;;;;;;;22.81;69.21;99178.19;5028400;28;20069;-41
2022/08/14 11:10:24;;;;;;;13.57;10.32;;;;;;;22.92;69.71;99178.63;5046832;28;20507;-30
2022/08/14 11:12:52;;;;;;;12.23;9.93;;;;;;;22.70;70.49;99204.13;5046318;28;20036;-32
2022/08/14 11:15:23;;;;;;;13.57;10.55;;;;;;;22.90;70.34;99202.63;5044808;28;20032;-32
2022/08/14 11:17:50;;;;;;;12.52;10.43;;;;;;;22.79;70.44;99202.16;5028398;28;20067;-29
2022/08/14 11:20:18;;;;;;;13.83;11.30;;;;;;;22.81;70.73;99193.72;5046586;28;20048;-39
2022/08/14 11:22:44;;;;;;;13.82;10.65;;;;;;;22.87;71.24;99195.13;5027896;28;20044;-29
2022/08/14 11:25:13;;;;;;;14.60;10.43;;;;;;;23.09;70.04;99156.09;5046487;28;20033;-30
2022/08/14 11:27:44;;;;;;;13.55;10.27;;;;;;;23.10;69.21;99173.22;5028560;28;20146;-32
2022/08/14 11:30:15;;;;;;;13.80;10.73;;;;;;;23.17;69.71;99174.31;5028442;28;20087;-29
2022/08/14 11:32:49;;;;;;;12.90;10.52;;;;;;;23.24;68.00;99177.31;5028413;28;20063;-30
2022/08/14 11:35:27;;;;;;;12.45;8.95;;;;;;;23.29;68.16;99175.53;5028354;28;20039;-33
2022/08/14 11:38:00;;;;;;;12.43;9.43;;;;;;;23.02;69.65;99172.09;5044597;28;20028;-30